Time;durP1;ratioP1;P1;durP2;ratioP2;P2;SDS_P1;SDS_P2;PMS_P1;PMS_P2;Temp;Humidity;BMP_temperature;BMP_pressure;BME280_temperature;BME280_humidity;BME280_pressure;Samples;Min_cycle;Max_cycle;Signal;HPM_P1;HPM_P2
2022/02/13 00:00:12;;;;;;;12.57;9.10;;;1.30;99.90;;;;;;4983477;28;20176;-65
2022/02/13 00:02:39;;;;;;;9.43;8.63;;;1.30;99.90;;;;;;4996120;28;20234;-65
2022/02/13 00:05:05;;;;;;;9.67;8.67;;;1.30;99.90;;;;;;4978625;28;20525;-66
2022/02/13 00:07:33;;;;;;;9.83;8.33;;;1.20;99.90;;;;;;4991850;28;20439;-65
2022/02/13 00:09:59;;;;;;;19.77;9.73;;;1.20;99.90;;;;;;4976896;28;20819;-65
2022/02/13 00:12:24;;;;;;;12.80;9.87;;;1.20;99.90;;;;;;4976436;28;20442;-66
2022/02/13 00:14:50;;;;;;;14.47;8.87;;;1.10;99.90;;;;;;4976898;28;20459;-65
2022/02/13 00:17:15;;;;;;;12.57;10.43;;;1.10;99.90;;;;;;4994153;28;20227;-65
2022/02/13 00:19:43;;;;;;;10.20;8.70;;;1.10;99.90;;;;;;4983410;28;20668;-65
2022/02/13 00:22:09;;;;;;;9.57;8.57;;;1.10;99.90;;;;;;4994254;28;20608;-66
2022/02/13 00:24:34;;;;;;;12.60;8.37;;;1.00;99.90;;;;;;4982778;28;20454;-65
2022/02/13 00:27:00;;;;;;;12.53;9.20;;;1.10;99.90;;;;;;4994051;28;20215;-66
2022/02/13 00:29:25;;;;;;;10.47;9.37;;;1.10;99.90;;;;;;4980969;28;20215;-66
2022/02/13 00:31:51;;;;;;;10.13;9.13;;;1.10;99.90;;;;;;4985163;28;20701;-65
2022/02/13 00:34:16;;;;;;;13.53;9.00;;;1.10;99.90;;;;;;4976963;28;20294;-65
2022/02/13 00:36:42;;;;;;;12.87;8.97;;;1.10;99.90;;;;;;4981744;28;20277;-66
2022/02/13 00:39:07;;;;;;;13.30;9.00;;;1.10;99.90;;;;;;4978639;28;20859;-65
2022/02/13 00:41:34;;;;;;;13.40;9.87;;;1.00;99.90;;;;;;4995085;28;20175;-65
2022/02/13 00:44:00;;;;;;;12.80;9.73;;;1.00;99.90;;;;;;4994147;28;20231;-66
2022/02/13 00:46:26;;;;;;;11.80;9.97;;;1.00;99.90;;;;;;4979279;28;20443;-65
2022/02/13 00:48:54;;;;;;;9.93;9.00;;;1.00;99.90;;;;;;4982658;28;20447;-65
2022/02/13 00:51:20;;;;;;;11.13;9.80;;;0.90;99.90;;;;;;4980394;28;20431;-66
2022/02/13 00:53:46;;;;;;;10.33;9.20;;;0.90;99.90;;;;;;4979534;28;20457;-65
2022/02/13 00:56:12;;;;;;;11.30;8.13;;;0.90;99.90;;;;;;4980112;28;20506;-65
2022/02/13 00:58:37;;;;;;;13.20;9.17;;;0.80;99.90;;;;;;4980708;28;20211;-65
2022/02/13 01:01:03;;;;;;;14.50;9.93;;;0.80;99.90;;;;;;4991927;28;20447;-65
2022/02/13 01:03:29;;;;;;;14.60;10.90;;;0.80;99.90;;;;;;4994407;28;20261;-65
2022/02/13 01:05:54;;;;;;;10.70;8.53;;;0.70;99.90;;;;;;4984509;28;20447;-65
2022/02/13 01:08:20;;;;;;;11.63;9.13;;;0.70;99.90;;;;;;4980605;28;20184;-65
2022/02/13 01:10:45;;;;;;;16.53;9.50;;;0.70;99.90;;;;;;4980891;28;20241;-66
2022/02/13 01:13:11;;;;;;;12.57;9.93;;;0.70;99.90;;;;;;4994548;28;20199;-65
2022/02/13 01:15:37;;;;;;;12.37;9.00;;;0.70;99.90;;;;;;4977460;28;20188;-65
2022/02/13 01:18:02;;;;;;;10.30;8.70;;;0.70;99.90;;;;;;4977927;28;20198;-65
2022/02/13 01:20:28;;;;;;;13.20;9.40;;;0.70;99.90;;;;;;4987762;28;20267;-65
2022/02/13 01:22:54;;;;;;;10.43;8.73;;;0.70;99.90;;;;;;4988606;28;20178;-65
2022/02/13 01:25:20;;;;;;;11.83;9.00;;;0.70;99.90;;;;;;4977659;28;20163;-65
2022/02/13 01:27:46;;;;;;;14.40;9.67;;;0.70;99.90;;;;;;4982090;28;20571;-65
2022/02/13 01:30:12;;;;;;;9.77;8.60;;;0.70;99.90;;;;;;4992226;28;20431;-65
2022/02/13 01:32:37;;;;;;;15.60;10.03;;;0.70;99.90;;;;;;4990222;28;20184;-65
2022/02/13 01:35:04;;;;;;;10.00;8.67;;;0.70;99.90;;;;;;4986605;28;20698;-66
2022/02/13 01:37:30;;;;;;;14.63;8.93;;;0.70;99.90;;;;;;4978191;28;20753;-65
2022/02/13 01:39:55;;;;;;;11.67;8.57;;;0.70;99.90;;;;;;4984197;28;20459;-65
2022/02/13 01:42:21;;;;;;;9.67;8.67;;;0.70;99.90;;;;;;4982932;28;20637;-65
2022/02/13 01:44:47;;;;;;;13.17;9.43;;;0.70;99.90;;;;;;4987558;28;20200;-65
2022/02/13 01:47:13;;;;;;;11.03;9.37;;;0.70;99.90;;;;;;4976857;28;20196;-65
2022/02/13 01:49:38;;;;;;;11.40;9.37;;;0.70;99.90;;;;;;4978234;28;20186;-65
2022/02/13 01:52:05;;;;;;;15.90;9.57;;;0.70;99.90;;;;;;4987049;28;20948;-65
2022/02/13 01:54:31;;;;;;;12.80;10.60;;;0.70;99.90;;;;;;4975197;28;20713;-65
2022/02/13 01:56:56;;;;;;;13.70;9.43;;;0.70;99.90;;;;;;4986376;28;20490;-66
2022/02/13 01:59:23;;;;;;;10.30;9.20;;;0.70;99.90;;;;;;4993530;28;20429;-65
2022/02/13 02:01:49;;;;;;;8.77;7.83;;;0.70;99.90;;;;;;4981500;28;20179;-65
2022/02/13 02:04:15;;;;;;;12.13;9.07;;;0.80;99.90;;;;;;4974378;28;20988;-65
2022/02/13 02:06:40;;;;;;;12.97;10.33;;;0.70;99.90;;;;;;4983807;28;20440;-65
2022/02/13 02:09:06;;;;;;;10.83;9.00;;;0.70;99.90;;;;;;4980976;28;20180;-65
2022/02/13 02:11:33;;;;;;;12.30;9.73;;;0.70;99.90;;;;;;4978435;28;20531;-65
2022/02/13 02:13:59;;;;;;;10.77;8.13;;;0.80;99.90;;;;;;4982358;28;20454;-65
2022/02/13 02:16:24;;;;;;;11.97;9.07;;;0.80;99.90;;;;;;4988339;28;20505;-65
2022/02/13 02:18:50;;;;;;;11.30;9.47;;;0.80;99.90;;;;;;4980018;28;20239;-65
2022/02/13 02:21:16;;;;;;;11.37;8.80;;;0.80;99.90;;;;;;4994892;28;20172;-65
2022/02/13 02:23:42;;;;;;;15.00;9.93;;;0.80;99.90;;;;;;4985544;28;20199;-65
2022/02/13 02:26:09;;;;;;;8.90;7.70;;;0.80;99.90;;;;;;4989102;28;20569;-65
2022/02/13 02:28:34;;;;;;;14.97;8.53;;;0.90;99.90;;;;;;4988847;28;20182;-65
2022/02/13 02:31:00;;;;;;;10.80;9.03;;;0.80;99.90;;;;;;4978314;28;20454;-65
2022/02/13 02:33:27;;;;;;;11.80;8.50;;;0.80;99.90;;;;;;4972621;28;20200;-65
2022/02/13 02:35:53;;;;;;;14.63;10.20;;;0.80;99.90;;;;;;4978887;28;20436;-66
2022/02/13 02:38:19;;;;;;;13.60;11.20;;;0.80;99.90;;;;;;4979386;28;20463;-66
2022/02/13 02:40:44;;;;;;;11.63;10.43;;;0.80;99.90;;;;;;4994431;28;20819;-65
2022/02/13 02:43:10;;;;;;;12.77;8.93;;;0.90;99.90;;;;;;4985774;28;20195;-65
2022/02/13 02:45:35;;;;;;;12.73;9.87;;;0.80;99.90;;;;;;4988334;28;20167;-65
2022/02/13 02:48:01;;;;;;;12.30;8.40;;;0.80;99.90;;;;;;4983503;28;20292;-65
2022/02/13 02:50:27;;;;;;;13.43;9.27;;;0.90;99.90;;;;;;4986241;28;20600;-65
2022/02/13 02:52:52;;;;;;;12.40;8.63;;;0.90;99.90;;;;;;4989161;28;20173;-66
2022/02/13 02:55:18;;;;;;;12.03;7.30;;;0.90;99.90;;;;;;4985896;28;20187;-65
2022/02/13 02:57:44;;;;;;;10.73;9.10;;;0.90;99.90;;;;;;4979826;28;20204;-65
2022/02/13 03:00:10;;;;;;;10.60;7.83;;;1.00;99.90;;;;;;4987575;28;20171;-65
2022/02/13 03:02:36;;;;;;;10.20;8.00;;;1.00;99.90;;;;;;4984603;28;20177;-65
2022/02/13 03:05:03;;;;;;;11.53;8.20;;;1.10;99.90;;;;;;4982838;28;20816;-65
2022/02/13 03:07:28;;;;;;;8.50;7.60;;;1.20;99.90;;;;;;4989373;28;20434;-65
2022/02/13 03:09:54;;;;;;;7.53;6.70;;;1.20;99.90;;;;;;4981548;28;20946;-65
2022/02/13 03:12:20;;;;;;;10.40;7.30;;;1.30;99.90;;;;;;4993801;28;20188;-65
2022/02/13 03:14:45;;;;;;;15.60;7.97;;;1.40;99.90;;;;;;4978111;28;20204;-65
2022/02/13 03:17:11;;;;;;;8.80;7.90;;;1.40;99.90;;;;;;4979177;28;20208;-65
2022/02/13 03:19:37;;;;;;;10.20;8.30;;;1.50;99.90;;;;;;4983549;28;20168;-66
2022/02/13 03:22:04;;;;;;;8.80;7.13;;;1.60;99.90;;;;;;4981745;28;20182;-65
2022/02/13 03:24:29;;;;;;;9.50;6.57;;;1.60;99.90;;;;;;4992331;28;20989;-65
2022/02/13 03:26:55;;;;;;;7.97;6.73;;;1.80;99.90;;;;;;4985885;28;20431;-65
2022/02/13 03:29:21;;;;;;;8.77;7.73;;;1.80;99.90;;;;;;4978930;28;20643;-65
2022/02/13 03:31:46;;;;;;;9.30;7.23;;;1.80;99.90;;;;;;4978363;28;20638;-65
2022/02/13 03:34:12;;;;;;;10.03;7.50;;;1.80;99.90;;;;;;4986418;28;20206;-65
2022/02/13 03:36:38;;;;;;;10.70;6.40;;;1.90;99.90;;;;;;4989910;28;20230;-65
2022/02/13 03:39:04;;;;;;;9.20;7.03;;;1.90;99.90;;;;;;4987580;28;20184;-65
2022/02/13 03:41:30;;;;;;;8.53;6.80;;;1.90;99.90;;;;;;4992589;28;20203;-65
2022/02/13 03:43:56;;;;;;;8.80;7.90;;;1.90;99.90;;;;;;4976760;28;20463;-65
2022/02/13 03:46:21;;;;;;;8.67;7.30;;;1.90;99.90;;;;;;4978720;28;20857;-65
2022/02/13 03:48:47;;;;;;;10.60;7.47;;;1.80;99.90;;;;;;4985950;28;20206;-65
2022/02/13 03:51:13;;;;;;;8.17;6.90;;;1.80;99.90;;;;;;4976592;28;20745;-65
2022/02/13 03:53:38;;;;;;;12.20;8.77;;;1.80;99.90;;;;;;4980607;28;20272;-65
2022/02/13 03:56:05;;;;;;;10.80;8.37;;;1.80;99.90;;;;;;4985382;28;20179;-66
2022/02/13 03:58:30;;;;;;;10.60;6.90;;;1.80;99.90;;;;;;4995762;28;20617;-65
2022/02/13 04:00:56;;;;;;;13.20;7.57;;;1.80;99.90;;;;;;4985293;28;20523;-65
2022/02/13 04:03:22;;;;;;;7.67;6.87;;;1.80;99.90;;;;;;4985672;28;20567;-65
2022/02/13 04:05:48;;;;;;;10.23;7.03;;;1.80;99.90;;;;;;4990447;28;20179;-65
2022/02/13 04:08:13;;;;;;;10.30;7.10;;;1.80;99.90;;;;;;4995026;28;20438;-65
2022/02/13 04:10:39;;;;;;;8.97;6.90;;;1.70;99.90;;;;;;4984344;28;20179;-65
2022/02/13 04:13:04;;;;;;;11.70;7.30;;;1.70;99.90;;;;;;4983409;28;20258;-65
2022/02/13 04:15:30;;;;;;;8.70;7.80;;;1.60;99.90;;;;;;4990551;28;20176;-65
2022/02/13 04:17:56;;;;;;;10.00;7.57;;;1.50;99.90;;;;;;4990393;28;20207;-65
2022/02/13 04:20:21;;;;;;;8.73;6.70;;;1.50;99.90;;;;;;4976763;28;20180;-65
2022/02/13 04:22:47;;;;;;;12.30;8.00;;;1.50;99.90;;;;;;4991085;28;20597;-66
2022/02/13 04:25:13;;;;;;;9.23;7.93;;;1.50;99.90;;;;;;4982970;28;20710;-66
2022/02/13 04:27:39;;;;;;;16.70;8.03;;;1.40;99.90;;;;;;4979334;28;20439;-66
2022/02/13 04:30:06;;;;;;;7.60;6.10;;;1.40;99.90;;;;;;4974388;28;20802;-64
2022/02/13 04:32:31;;;;;;;7.57;6.10;;;1.40;99.90;;;;;;4993082;28;20211;-66
2022/02/13 04:34:57;;;;;;;9.03;6.60;;;1.40;99.90;;;;;;4983267;28;20484;-66
2022/02/13 04:37:23;;;;;;;8.57;7.67;;;1.50;99.90;;;;;;4973825;28;20203;-65
2022/02/13 04:39:49;;;;;;;8.83;7.90;;;1.40;99.90;;;;;;4992919;28;20180;-66
2022/02/13 04:42:15;;;;;;;8.90;6.87;;;1.40;99.90;;;;;;4988006;28;20531;-65
2022/02/13 04:44:41;;;;;;;8.77;7.47;;;1.40;99.90;;;;;;4979612;28;20439;-66
2022/02/13 04:47:07;;;;;;;9.40;8.37;;;1.30;99.90;;;;;;4982390;28;20196;-65
2022/02/13 04:49:33;;;;;;;10.40;6.97;;;1.40;99.90;;;;;;4978376;28;20481;-66
2022/02/13 04:51:59;;;;;;;8.27;6.87;;;1.30;99.90;;;;;;4975139;28;20467;-66
2022/02/13 04:54:24;;;;;;;10.67;7.53;;;1.30;99.90;;;;;;4975540;28;20231;-65
2022/02/13 04:56:51;;;;;;;12.80;6.80;;;1.30;99.90;;;;;;4977277;28;20270;-66
2022/02/13 04:59:17;;;;;;;7.70;6.53;;;1.30;99.90;;;;;;4984814;28;20255;-65
2022/02/13 05:01:43;;;;;;;9.63;6.53;;;1.20;99.90;;;;;;4975560;28;20442;-65
2022/02/13 05:04:08;;;;;;;9.80;6.20;;;1.20;99.90;;;;;;4973595;28;20470;-66
2022/02/13 05:06:35;;;;;;;12.60;7.10;;;1.20;99.90;;;;;;4975233;28;20172;-66
2022/02/13 05:09:00;;;;;;;9.97;6.67;;;1.20;99.90;;;;;;4985571;28;20164;-65
2022/02/13 05:11:27;;;;;;;7.30;6.10;;;1.20;99.90;;;;;;4958925;28;20431;-65
2022/02/13 05:13:53;;;;;;;8.30;6.10;;;1.20;99.90;;;;;;4973474;28;20666;-65
2022/02/13 05:16:19;;;;;;;7.83;6.20;;;1.20;99.90;;;;;;4983132;28;20431;-66
2022/02/13 05:18:44;;;;;;;7.90;6.10;;;1.40;99.90;;;;;;4972680;28;20460;-65
2022/02/13 05:21:10;;;;;;;7.97;6.53;;;1.60;99.90;;;;;;4974460;28;20533;-66
2022/02/13 05:23:36;;;;;;;9.50;5.60;;;1.70;99.90;;;;;;4992472;28;20202;-65
2022/02/13 05:26:02;;;;;;;9.17;5.40;;;1.90;99.90;;;;;;4982839;28;20187;-67
2022/02/13 05:28:28;;;;;;;9.20;6.13;;;2.00;99.90;;;;;;4988026;28;20262;-67
2022/02/13 05:30:53;;;;;;;7.50;5.80;;;2.10;99.90;;;;;;4986594;28;20530;-66
2022/02/13 05:33:19;;;;;;;13.07;7.10;;;2.20;99.90;;;;;;4983376;28;20510;-67
2022/02/13 05:35:44;;;;;;;7.43;5.87;;;2.20;99.90;;;;;;4991947;28;20704;-67
2022/02/13 05:38:10;;;;;;;8.70;5.40;;;2.30;99.90;;;;;;4981939;28;20267;-67
2022/02/13 05:40:35;;;;;;;8.00;5.33;;;2.30;99.90;;;;;;4987623;28;20168;-68
2022/02/13 05:43:01;;;;;;;7.37;5.70;;;2.30;99.90;;;;;;4985971;28;20599;-68
2022/02/13 05:45:26;;;;;;;9.07;5.50;;;2.30;99.90;;;;;;4972858;28;20251;-68
2022/02/13 05:47:52;;;;;;;10.20;6.43;;;2.40;99.90;;;;;;4974105;28;20222;-67
2022/02/13 05:50:18;;;;;;;10.70;5.70;;;2.40;99.90;;;;;;4977352;28;20186;-67
2022/02/13 05:52:43;;;;;;;7.60;5.80;;;2.50;99.90;;;;;;4989600;28;20239;-68
2022/02/13 05:55:09;;;;;;;7.43;5.93;;;2.50;99.90;;;;;;4992065;28;20175;-67
2022/02/13 05:57:34;;;;;;;8.90;6.70;;;2.50;99.90;;;;;;4992555;28;20566;-67
2022/02/13 06:00:00;;;;;;;8.67;6.37;;;2.40;99.90;;;;;;4996085;28;20593;-66
2022/02/13 06:02:25;;;;;;;7.70;6.17;;;2.40;99.90;;;;;;4983029;28;20176;-67
2022/02/13 06:04:52;;;;;;;8.30;5.50;;;2.40;99.90;;;;;;4985595;28;20271;-67
2022/02/13 06:07:18;;;;;;;6.20;5.10;;;2.30;99.90;;;;;;4985033;28;20172;-68
2022/02/13 06:09:43;;;;;;;7.63;5.33;;;2.30;99.90;;;;;;4995384;28;20430;-66
2022/02/13 06:12:09;;;;;;;9.23;6.87;;;2.40;99.90;;;;;;4978514;28;20446;-67
2022/02/13 06:14:35;;;;;;;8.20;5.80;;;2.30;99.90;;;;;;4983238;28;20207;-67
2022/02/13 06:17:00;;;;;;;8.93;5.80;;;2.30;99.90;;;;;;4982197;28;20462;-68
2022/02/13 06:19:26;;;;;;;7.30;5.97;;;2.30;99.90;;;;;;4989036;28;20227;-66
2022/02/13 06:21:52;;;;;;;5.77;5.27;;;2.30;99.90;;;;;;4990926;28;20172;-67
2022/02/13 06:24:17;;;;;;;6.77;5.37;;;2.40;99.90;;;;;;4989950;28;20184;-67
2022/02/13 06:26:43;;;;;;;8.87;6.17;;;2.30;99.90;;;;;;4976039;28;20206;-67
2022/02/13 06:29:09;;;;;;;8.73;4.87;;;2.40;99.90;;;;;;4975801;28;20204;-66
2022/02/13 06:31:34;;;;;;;6.80;4.87;;;2.40;99.90;;;;;;4989124;28;20171;-68
2022/02/13 06:34:00;;;;;;;12.73;5.87;;;2.40;99.90;;;;;;4977003;28;20987;-67
2022/02/13 06:36:26;;;;;;;5.60;4.87;;;2.50;99.90;;;;;;4987677;28;20688;-67
2022/02/13 06:38:51;;;;;;;6.00;4.97;;;2.50;99.90;;;;;;4977270;28;20731;-67
2022/02/13 06:41:17;;;;;;;11.73;5.87;;;2.50;99.90;;;;;;4988299;28;20221;-67
2022/02/13 06:43:42;;;;;;;6.70;5.30;;;2.50;99.90;;;;;;4981281;28;20196;-67
2022/02/13 06:46:08;;;;;;;7.83;5.47;;;2.50;99.90;;;;;;4994231;28;20314;-67
2022/02/13 06:48:35;;;;;;;9.37;5.33;;;2.60;99.90;;;;;;4979222;28;20660;-67
2022/02/13 06:51:01;;;;;;;8.03;6.30;;;2.60;99.90;;;;;;4992687;28;20187;-67
2022/02/13 06:53:26;;;;;;;8.60;4.80;;;2.50;99.90;;;;;;4993488;28;20824;-66
2022/02/13 06:55:52;;;;;;;6.07;5.47;;;2.50;99.90;;;;;;4974463;28;20172;-67
2022/02/13 06:58:18;;;;;;;5.93;5.03;;;2.50;99.90;;;;;;4992559;28;20207;-67
2022/02/13 07:00:44;;;;;;;6.03;5.20;;;2.60;99.90;;;;;;4985876;28;20204;-67
2022/02/13 07:03:10;;;;;;;9.00;5.20;;;2.60;99.90;;;;;;4982329;28;20544;-67
2022/02/13 07:05:37;;;;;;;6.10;5.50;;;2.60;99.90;;;;;;4993107;28;20849;-67
2022/02/13 07:08:03;;;;;;;6.80;5.73;;;2.60;99.90;;;;;;4975717;28;20431;-67
2022/02/13 07:10:28;;;;;;;9.20;6.00;;;2.70;99.90;;;;;;4979500;28;20545;-67
2022/02/13 07:12:54;;;;;;;7.77;5.60;;;2.90;99.90;;;;;;4985195;28;20423;-66
2022/02/13 07:15:19;;;;;;;8.33;6.20;;;3.10;99.90;;;;;;4984355;28;20196;-68
2022/02/13 07:17:45;;;;;;;7.73;6.57;;;3.30;99.90;;;;;;4992114;28;20545;-67
2022/02/13 07:20:12;;;;;;;5.73;5.17;;;3.50;99.90;;;;;;4976109;28;20202;-67
2022/02/13 07:22:37;;;;;;;6.97;5.37;;;3.80;99.90;;;;;;4974148;28;20446;-67
2022/02/13 07:25:06;;;;;;;6.67;5.03;;;3.90;99.90;;;;;;4985320;28;20535;-67
2022/02/13 07:27:36;;;;;;;11.50;5.80;;;4.10;99.90;;;;;;4993392;28;20182;-67
2022/02/13 07:30:03;;;;;;;10.37;5.40;;;4.40;99.90;;;;;;4986067;28;20434;-67
2022/02/13 07:32:28;;;;;;;6.20;5.47;;;4.60;99.90;;;;;;4991905;28;20822;-67
2022/02/13 07:34:54;;;;;;;5.67;5.17;;;4.70;99.90;;;;;;4979299;28;20451;-66
2022/02/13 07:37:19;;;;;;;5.97;5.10;;;4.90;99.90;;;;;;4988978;28;20626;-67
2022/02/13 07:39:45;;;;;;;8.83;6.27;;;5.00;99.90;;;;;;4974392;28;20180;-67
2022/02/13 07:42:10;;;;;;;6.90;5.10;;;5.30;99.90;;;;;;4981687;28;20264;-67
2022/02/13 07:44:37;;;;;;;10.37;5.77;;;5.40;99.90;;;;;;4979369;28;20341;-67
2022/02/13 07:47:03;;;;;;;6.80;5.00;;;5.50;99.90;;;;;;4945557;28;1033741;-66
2022/02/13 07:49:29;;;;;;;5.17;4.67;;;5.70;99.90;;;;;;4990002;28;21057;-67
2022/02/13 07:51:55;;;;;;;7.20;5.30;;;5.90;99.90;;;;;;4986101;28;20537;-68
2022/02/13 07:54:20;;;;;;;8.20;6.13;;;6.20;99.90;;;;;;4977286;28;20200;-69
2022/02/13 07:56:46;;;;;;;6.97;5.87;;;6.50;99.90;;;;;;4974153;28;20553;-68
2022/02/13 07:59:12;;;;;;;8.60;5.00;;;6.70;99.90;;;;;;4977067;28;20613;-65
2022/02/13 08:01:37;;;;;;;6.60;5.20;;;6.90;99.90;;;;;;4988298;28;20490;-66
2022/02/13 08:04:03;;;;;;;10.70;4.90;;;7.10;99.90;;;;;;4974547;28;20577;-66
2022/02/13 08:06:28;;;;;;;10.07;6.13;;;7.20;99.90;;;;;;4976863;28;20263;-66
2022/02/13 08:08:54;;;;;;;7.87;5.93;;;7.50;99.90;;;;;;4989500;28;20175;-65
2022/02/13 08:11:20;;;;;;;7.53;5.60;;;7.60;99.90;;;;;;4980768;28;20181;-66
2022/02/13 08:13:46;;;;;;;11.83;5.83;;;7.80;99.90;;;;;;4979917;28;20618;-66
2022/02/13 08:16:12;;;;;;;8.43;5.00;;;8.00;99.90;;;;;;4980889;28;20224;-65
2022/02/13 08:18:39;;;;;;;7.40;5.07;;;8.10;99.90;;;;;;4989023;28;20467;-66
2022/02/13 08:21:09;;;;;;;5.20;4.70;;;8.20;99.90;;;;;;4976697;28;20471;-66
2022/02/13 08:23:35;;;;;;;7.43;6.50;;;8.60;99.90;;;;;;4981131;28;20446;-66
2022/02/13 08:26:02;;;;;;;7.23;5.80;;;8.80;99.90;;;;;;4992797;28;20970;-67
2022/02/13 08:28:31;;;;;;;8.57;6.97;;;9.40;99.90;;;;;;4974413;28;20515;-66
2022/02/13 08:30:57;;;;;;;7.30;6.60;;;9.60;99.90;;;;;;4975370;28;20435;-67
2022/02/13 08:33:22;;;;;;;6.60;5.90;;;10.10;99.90;;;;;;4981846;28;21262;-68
2022/02/13 08:35:48;;;;;;;7.47;6.30;;;10.70;99.90;;;;;;4979610;28;20435;-67
2022/02/13 08:38:13;;;;;;;7.70;6.53;;;10.70;99.90;;;;;;4984323;28;20207;-68
2022/02/13 08:40:40;;;;;;;8.63;6.37;;;10.70;99.90;;;;;;4993456;28;20232;-67
2022/02/13 08:43:06;;;;;;;6.20;5.60;;;10.90;99.70;;;;;;4980322;28;20599;-67
2022/02/13 08:45:33;;;;;;;6.20;5.60;;;10.70;99.50;;;;;;4980916;28;20449;-67
2022/02/13 08:47:59;;;;;;;7.30;5.73;;;10.60;99.20;;;;;;4978546;28;20451;-65
2022/02/13 08:50:25;;;;;;;9.43;6.50;;;10.90;99.10;;;;;;4979553;28;20439;-67
2022/02/13 08:52:51;;;;;;;6.37;5.87;;;11.10;98.90;;;;;;4986007;28;20188;-67
2022/02/13 08:55:18;;;;;;;10.30;7.77;;;11.40;97.70;;;;;;4983205;28;20853;-67
2022/02/13 08:57:45;;;;;;;10.10;8.03;;;11.70;97.50;;;;;;4992311;28;20497;-67
2022/02/13 09:00:12;;;;;;;11.97;8.43;;;12.50;96.60;;;;;;4973804;28;20466;-67
2022/02/13 09:02:39;;;;;;;9.63;6.13;;;12.70;94.70;;;;;;4978190;28;20466;-66
2022/02/13 09:05:09;;;;;;;8.80;6.63;;;12.30;94.80;;;;;;4992133;28;20537;-66
2022/02/13 09:07:36;;;;;;;8.90;6.10;;;12.10;95.10;;;;;;4980618;28;20442;-67
2022/02/13 09:10:09;;;;;;;7.73;7.03;;;12.70;94.60;;;;;;4984314;28;20808;-66
2022/02/13 09:12:35;;;;;;;10.53;7.10;;;13.10;93.80;;;;;;4977368;28;20939;-67
2022/02/13 09:15:00;;;;;;;10.77;7.70;;;13.50;93.10;;;;;;4992501;28;20451;-66
2022/02/13 09:17:26;;;;;;;12.43;6.87;;;13.60;92.50;;;;;;4981590;28;20207;-67
2022/02/13 09:19:51;;;;;;;13.37;6.90;;;13.60;91.70;;;;;;4982629;28;20184;-67
2022/02/13 09:22:17;;;;;;;12.03;8.03;;;13.60;91.60;;;;;;4975826;28;20596;-68
2022/02/13 09:24:42;;;;;;;14.77;7.50;;;13.50;91.40;;;;;;4986005;28;20195;-65
2022/02/13 09:27:09;;;;;;;7.77;6.97;;;13.00;91.90;;;;;;4984739;28;20232;-68
2022/02/13 09:29:35;;;;;;;12.43;7.67;;;13.00;92.00;;;;;;4976505;28;20195;-69
2022/02/13 09:32:00;;;;;;;7.33;6.80;;;13.40;91.30;;;;;;4978504;28;20950;-68
2022/02/13 09:34:28;;;;;;;9.17;8.07;;;13.10;91.00;;;;;;4990276;28;20661;-67
2022/02/13 09:36:55;;;;;;;9.20;7.97;;;12.80;91.90;;;;;;4985260;28;20215;-68
2022/02/13 09:39:21;;;;;;;9.13;6.93;;;13.30;91.50;;;;;;4973079;28;20859;-68
2022/02/13 09:41:47;;;;;;;10.43;7.07;;;13.40;90.60;;;;;;4973015;28;20526;-68
2022/02/13 09:44:12;;;;;;;7.73;6.47;;;13.60;91.20;;;;;;4974070;28;20713;-68
2022/02/13 09:46:38;;;;;;;11.30;6.80;;;14.40;89.40;;;;;;4978622;28;20529;-68
2022/02/13 09:49:05;;;;;;;14.00;7.83;;;14.20;87.60;;;;;;4977211;28;20715;-67
2022/02/13 09:51:35;;;;;;;7.77;7.17;;;13.50;90.00;;;;;;4976886;28;20188;-72
2022/02/13 09:54:01;;;;;;;9.60;7.20;;;13.60;89.30;;;;;;4972872;28;20459;-71
2022/02/13 09:56:27;;;;;;;8.10;7.10;;;14.00;89.50;;;;;;4978580;28;20431;-69
2022/02/13 09:58:53;;;;;;;9.80;6.67;;;14.70;86.50;;;;;;4977117;28;20524;-69
2022/02/13 10:01:18;;;;;;;14.30;7.33;;;15.40;84.80;;;;;;4972970;28;20250;-70
2022/02/13 10:03:45;;;;;;;8.80;7.90;;;16.90;80.10;;;;;;4988642;28;20732;-70
2022/02/13 10:06:14;;;;;;;7.50;6.53;;;17.70;75.80;;;;;;4983501;28;20187;-70
2022/02/13 10:08:48;;;;;;;8.67;7.60;;;18.00;71.90;;;;;;4979866;28;20804;-69
2022/02/13 10:11:29;;;;;;;10.07;9.07;;;17.10;71.10;;;;;;4992125;28;20466;-70
2022/02/13 10:14:01;;;;;;;13.13;6.90;;;17.30;70.50;;;;;;4977096;28;20826;-68
2022/02/13 10:16:30;;;;;;;8.57;6.90;;;18.80;67.50;;;;;;4983064;28;20447;-67
2022/02/13 10:19:08;;;;;;;8.67;7.43;;;20.20;61.90;;;;;;4991524;28;20466;-68
2022/02/13 10:22:05;;;;;;;7.87;7.07;;;20.50;59.70;;;;;;4975552;28;20438;-67
2022/02/13 10:24:32;;;;;;;8.07;7.37;;;18.90;59.00;;;;;;4986399;28;20455;-70
2022/02/13 10:27:14;;;;;;;11.40;7.63;;;19.00;59.00;;;;;;4987047;28;20447;-70
2022/02/13 10:29:53;;;;;;;9.43;6.40;;;19.70;59.90;;;;;;4977833;28;20887;-70
2022/02/13 10:32:27;;;;;;;11.30;7.37;;;21.60;55.80;;;;;;4984727;28;20435;-68
2022/02/13 10:35:05;;;;;;;8.90;7.30;;;22.00;52.60;;;;;;4986004;28;20489;-68
2022/02/13 10:37:46;;;;;;;14.57;7.80;;;21.20;52.80;;;;;;4980913;28;21151;-68
2022/02/13 10:40:19;;;;;;;10.67;8.00;;;20.80;53.00;;;;;;4991690;28;20493;-68
2022/02/13 10:42:46;;;;;;;8.50;6.73;;;20.60;53.50;;;;;;4993403;28;20450;-68
2022/02/13 10:45:15;;;;;;;10.50;6.77;;;21.20;52.00;;;;;;4994794;28;20434;-70
2022/02/13 10:47:41;;;;;;;7.93;7.13;;;21.20;50.90;;;;;;4991628;28;20494;-70
2022/02/13 10:50:08;;;;;;;16.27;6.93;;;19.10;52.00;;;;;;4984900;28;20442;-70
2022/02/13 10:52:35;;;;;;;9.67;7.00;;;18.30;53.80;;;;;;4993229;28;20447;-70
2022/02/13 10:55:04;;;;;;;10.27;7.73;;;17.90;54.80;;;;;;4994887;28;20492;-70
2022/02/13 10:57:30;;;;;;;10.27;8.13;;;18.70;54.30;;;;;;4994049;28;20549;-70
2022/02/13 10:59:55;;;;;;;7.20;6.50;;;18.80;53.90;;;;;;4982970;28;20521;-70
2022/02/13 11:02:24;;;;;;;8.73;6.27;;;18.50;53.20;;;;;;4993925;28;20267;-72
2022/02/13 11:04:51;;;;;;;12.00;6.50;;;18.80;53.30;;;;;;4994567;28;20196;-71
2022/02/13 11:07:19;;;;;;;7.43;6.47;;;19.90;52.40;;;;;;4994376;28;20442;-72
2022/02/13 11:09:47;;;;;;;10.03;6.10;;;19.40;50.80;;;;;;4977797;28;20450;-71
2022/02/13 11:12:17;;;;;;;8.53;7.63;;;18.40;52.10;;;;;;4994783;28;20446;-70
2022/02/13 11:14:47;;;;;;;10.97;6.80;;;18.80;53.10;;;;;;4985503;28;20455;-68
2022/02/13 11:17:27;;;;;;;11.43;7.93;;;19.70;51.50;;;;;;4992356;28;20462;-69
2022/02/13 11:19:53;;;;;;;8.10;6.00;;;20.80;49.60;;;;;;4990138;28;20434;-67
2022/02/13 11:22:18;;;;;;;9.27;6.33;;;21.40;48.80;;;;;;4994519;28;20445;-68
2022/02/13 11:24:50;;;;;;;7.93;7.20;;;21.20;47.90;;;;;;4989606;28;20962;-69
2022/02/13 11:27:17;;;;;;;8.13;7.33;;;20.10;47.80;;;;;;4992353;28;20676;-68
2022/02/13 11:29:50;;;;;;;8.20;6.10;;;19.10;50.10;;;;;;4994712;28;21072;-68
2022/02/13 11:32:32;;;;;;;9.63;6.90;;;18.90;50.50;;;;;;4987950;28;20450;-69
2022/02/13 11:34:57;;;;;;;7.07;6.37;;;20.30;49.90;;;;;;4990445;28;20534;-68
2022/02/13 11:37:24;;;;;;;6.30;5.10;;;21.00;47.60;;;;;;4994105;28;20553;-68
2022/02/13 11:39:50;;;;;;;6.03;5.53;;;20.70;47.80;;;;;;4992536;28;20177;-68
2022/02/13 11:42:19;;;;;;;7.63;6.30;;;18.80;48.20;;;;;;4992548;28;20424;-68
2022/02/13 11:44:52;;;;;;;8.27;6.30;;;18.80;49.50;;;;;;4987966;28;20290;-67
2022/02/13 11:47:35;;;;;;;9.53;5.17;;;17.90;49.70;;;;;;4992678;28;20457;-68
2022/02/13 11:50:07;;;;;;;8.40;6.17;;;17.40;51.00;;;;;;4993814;28;20529;-68
2022/02/13 11:52:37;;;;;;;5.97;5.37;;;17.40;51.40;;;;;;4978550;28;20446;-68
2022/02/13 11:55:05;;;;;;;9.67;6.23;;;18.20;50.40;;;;;;4993859;28;20446;-68
2022/02/13 11:57:33;;;;;;;6.93;5.30;;;18.60;49.60;;;;;;4968562;28;20462;-69
2022/02/13 11:59:58;;;;;;;10.53;5.77;;;19.00;49.60;;;;;;4979778;28;20522;-67
2022/02/13 12:02:30;;;;;;;5.73;4.90;;;19.80;48.70;;;;;;4974883;28;20833;-68
2022/02/13 12:05:07;;;;;;;6.23;5.63;;;20.70;47.00;;;;;;4989863;28;20191;-69
2022/02/13 12:07:35;;;;;;;7.33;6.57;;;21.00;47.30;;;;;;4964064;28;20430;-68
2022/02/13 12:10:01;;;;;;;8.63;5.20;;;21.60;46.00;;;;;;4992080;28;20431;-69
2022/02/13 12:12:29;;;;;;;5.37;4.77;;;21.60;45.20;;;;;;4984197;28;20522;-68
2022/02/13 12:14:55;;;;;;;18.50;12.90;;;21.10;45.30;;;;;;4978973;28;20525;-68
2022/02/13 12:17:26;;;;;;;8.70;6.93;;;20.10;46.50;;;;;;4992103;28;20450;-68
2022/02/13 12:20:08;;;;;;;11.93;6.97;;;20.80;46.40;;;;;;4990182;28;21135;-68
2022/02/13 12:22:34;;;;;;;6.47;5.87;;;20.70;45.60;;;;;;4986769;28;20423;-70
2022/02/13 12:25:02;;;;;;;6.20;5.60;;;21.20;45.60;;;;;;4993067;28;20453;-69
2022/02/13 12:27:28;;;;;;;11.23;8.47;;;20.40;45.60;;;;;;4962038;28;20423;-70
2022/02/13 12:29:56;;;;;;;6.33;5.63;;;19.10;46.50;;;;;;4993430;28;20492;-69
2022/02/13 12:32:34;;;;;;;6.63;5.90;;;19.20;47.30;;;;;;4993354;28;20207;-69
2022/02/13 12:35:06;;;;;;;6.20;5.60;;;20.30;47.10;;;;;;4990448;28;20447;-68
2022/02/13 12:37:41;;;;;;;9.00;5.40;;;21.50;45.00;;;;;;4962072;28;20519;-68
2022/02/13 12:40:09;;;;;;;8.60;5.80;;;21.60;43.80;;;;;;4982243;28;20427;-67
2022/02/13 12:42:38;;;;;;;6.97;5.90;;;20.40;44.30;;;;;;4991140;28;21027;-68
2022/02/13 12:45:08;;;;;;;9.20;6.10;;;20.30;45.50;;;;;;4992651;28;20489;-68